Sandy Lake Airport
CZSJ : now visible

Airfield :











YOU CAN JOIN US ON...

 
LOGIN :

Register | Disclaimer

   EN    FR    IT 

 









Legend :    VFR   Marginal VFR   IFR   Intensive IFR   Very Intensive IFR
Visi :
Ceiling :
>= 8 km
>= 3000ft
5 to 8 km
1000 to 3000 ft
1500m to 5 km
500 to 1000 ft
800 to 1500m
200 to 500 ft
< 800m
< 200 ft
Symbols :   Thunderstorms  Fog  Heavy snow  Heavy precipitations  Wind > 20 kt







- Airport Elevation : 951 ft
- IATA code : ZSJ


CZSJ - Sandy Lake

CURRENT METAR :
  • 260502Z AUTO 18008G16KT 130V210 9SM OVC013 17/16 A2971 RMK SLP066 DENSITY ALT 1600FT

EXPIRED METARs :
  • 260448Z AUTO 17007KT 140V200 8SM -RA FEW009 OVC013 17/16 A2972 RMK SLP068 DENSITY ALT 1600FT
  • 260400Z AUTO 17007G15KT 9SM BKN013 BKN018 OVC027 17/16 A2972 RMK SLP069 DENSITY ALT 1600FT
  • 260351Z AUTO 16008G15KT 120V210 9SM SCT013 BKN019 OVC029 17/16 A2972 RMK SLP070 DENSITY ALT 1600FT
  • 260321Z AUTO 17009G16KT 150V210 9SM SCT013 OVC029 17/16 A2972 RMK SLP071 DENSITY ALT 1600FT
  • 260313Z AUTO 17008G15KT 150V220 9SM BKN013 OVC027 17/16 A2973 RMK SLP072 DENSITY ALT 1600FT
  • 260242Z AUTO 17007G17KT 9SM -RA SCT010 BKN014 BKN019 OVC033 17/16 A2973 RMK SLP074 DENSITY ALT 1600FT
  • 260219Z AUTO 17007KT 140V200 9SM BKN011 BKN016 OVC037 17/17 A2974 RMK SLP075 DENSITY ALT 1600FT

Expired Forecast.
No reported NOTAMs for that airfield.



MET'MAP, your aeronautical weather chart ! - Copyright ORBIFLY December 2007 - Disclaimer

ORBIFLY MET'MAP TEAM :

Programming & Development : Alexandra Zaïnal
Concept & Development : Baudouin d'Aumeries
Co-Development & Prog : Marc-Olivier Méhu
Technical & hardware support : Manuel Goepfert

Contact : metmap@orbifly.com




SOURCES & CREDITS :

   NOAA       Earth
Advisory